Time;durP1;ratioP1;P1;durP2;ratioP2;P2;SDS_P1;SDS_P2;PMS_P1;PMS_P2;Temp;Humidity;BMP_temperature;BMP_pressure;BME280_temperature;BME280_humidity;BME280_pressure;Samples;Min_cycle;Max_cycle;Signal;HPM_P1;HPM_P2
2023/04/24 00:00:18;;;;;;;;;5.00;5.00;;;;;11.01;55.12;100236.88;5060621;28;45483;-64
2023/04/24 00:02:47;;;;;;;;;8.00;6.00;;;;;10.96;55.03;100222.13;5060420;28;49070;-64
2023/04/24 00:05:17;;;;;;;;;7.25;6.75;;;;;10.96;55.21;100230.88;5060416;28;45213;-64
2023/04/24 00:07:44;;;;;;;;;6.50;5.00;;;;;10.93;55.09;100243.22;5042240;28;48364;-64
2023/04/24 00:10:10;;;;;;;;;5.00;3.25;;;;;10.93;55.12;100246.75;5044952;28;45349;-64
2023/04/24 00:12:36;;;;;;;;;6.00;5.00;;;;;10.88;54.98;100235.47;5036234;28;45240;-64
2023/04/24 00:15:02;;;;;;;;;4.00;4.00;;;;;10.88;55.12;100244.22;5060306;28;45369;-64
2023/04/24 00:17:27;;;;;;;;;6.00;6.00;;;;;10.88;55.06;100246.84;5060269;28;46506;-64
2023/04/24 00:19:58;;;;;;;;;6.75;5.75;;;;;10.86;55.06;100242.50;5042192;28;45267;-64
2023/04/24 00:22:27;;;;;;;;;5.00;5.00;;;;;10.81;55.33;100255.75;5060341;28;45348;-64
2023/04/24 00:24:53;;;;;;;;;4.00;4.00;;;;;10.76;55.40;100251.53;5060092;28;45498;-64
2023/04/24 00:27:19;;;;;;;;;6.75;5.00;;;;;10.77;55.26;100266.38;5059659;28;45260;-64
2023/04/24 00:29:44;;;;;;;;;7.00;4.75;;;;;10.66;55.10;100253.47;5042271;28;45369;-64
2023/04/24 00:32:09;;;;;;;;;7.25;6.00;;;;;10.69;55.45;100261.28;5042079;28;45224;-64
2023/04/24 00:34:35;;;;;;;;;6.00;6.00;;;;;10.68;55.31;100275.34;5042046;28;45359;-64
2023/04/24 00:37:00;;;;;;;;;9.50;7.00;;;;;10.63;55.39;100271.94;5059651;28;46151;-64
2023/04/24 00:39:26;;;;;;;;;5.75;4.75;;;;;10.57;55.30;100267.69;5041014;28;45229;-64
2023/04/24 00:41:52;;;;;;;;;5.25;5.00;;;;;10.57;55.33;100280.81;5059943;28;45498;-64
2023/04/24 00:44:18;;;;;;;;;3.75;3.75;;;;;10.55;55.25;100286.13;5060174;28;45328;-64
2023/04/24 00:46:43;;;;;;;;;7.00;5.00;;;;;10.56;55.15;100289.59;5059807;28;46402;-64
2023/04/24 00:49:09;;;;;;;;;6.00;6.00;;;;;10.53;55.38;100282.66;5059925;28;45374;-64
2023/04/24 00:51:34;;;;;;;;;3.00;3.00;;;;;10.51;55.27;100288.84;5041747;28;45268;-64
2023/04/24 00:54:00;;;;;;;;;5.00;4.50;;;;;10.52;55.51;100290.56;5058510;28;45280;-64
2023/04/24 00:56:27;;;;;;;;;7.00;4.00;;;;;10.53;55.70;100287.91;5059311;28;46290;-64
2023/04/24 00:58:52;;;;;;;;;3.25;3.00;;;;;10.43;55.29;100272.34;5059887;28;45244;-64
2023/04/24 01:01:20;;;;;;;;;4.75;4.75;;;;;10.42;55.61;100289.88;5059683;28;45220;-64
2023/04/24 01:03:46;;;;;;;;;6.75;5.00;;;;;10.42;55.46;100297.78;5059955;28;45198;-63
2023/04/24 01:06:12;;;;;;;;;2.25;2.25;;;;;10.44;55.42;100303.00;5041244;28;48347;-64
2023/04/24 01:08:39;;;;;;;;;3.75;3.75;;;;;10.38;55.75;100291.72;5058393;28;45363;-64
2023/04/24 01:11:05;;;;;;;;;8.25;5.00;;;;;10.37;55.69;100289.13;5059357;28;45340;-64
2023/04/24 01:13:31;;;;;;;;;4.00;4.00;;;;;10.39;55.71;100298.69;5059197;28;45524;-64
2023/04/24 01:15:57;;;;;;;;;3.25;3.25;;;;;10.33;55.65;100276.94;5041197;28;47148;-64
2023/04/24 01:18:22;;;;;;;;;5.75;4.50;;;;;10.33;55.53;100283.03;5059528;28;45158;-64
2023/04/24 01:20:52;;;;;;;;;4.50;4.00;;;;;10.32;55.56;100286.53;5059635;28;45317;-64
2023/04/24 01:23:18;;;;;;;;;3.00;3.00;;;;;10.29;55.73;100284.00;5041070;28;45487;-64
2023/04/24 01:25:44;;;;;;;;;3.75;2.50;;;;;10.28;55.73;100277.00;5057761;28;47975;-64
2023/04/24 01:28:09;;;;;;;;;4.50;3.50;;;;;10.31;55.78;100276.94;5059259;28;45343;-64
2023/04/24 01:30:35;;;;;;;;;4.00;2.50;;;;;10.30;55.66;100277.84;5041495;28;45379;-64
2023/04/24 01:33:00;;;;;;;;;5.75;5.00;;;;;10.28;55.79;100287.50;5059519;28;45602;-64
2023/04/24 01:35:26;;;;;;;;;5.25;4.75;;;;;10.28;55.58;100287.50;5041144;28;47427;-64
2023/04/24 01:37:51;;;;;;;;;3.25;3.00;;;;;10.29;55.81;100285.75;5041059;28;45518;-64
2023/04/24 01:40:17;;;;;;;;;4.00;4.00;;;;;10.25;55.58;100292.81;5057891;28;45325;-64
2023/04/24 01:42:42;;;;;;;;;6.50;4.25;;;;;10.27;55.93;100304.16;5059248;28;45364;-64
2023/04/24 01:45:10;;;;;;;;;5.50;4.00;;;;;10.22;55.98;100300.75;5058980;28;46184;-64
2023/04/24 01:47:36;;;;;;;;;7.25;3.00;;;;;10.27;55.92;100305.94;5040934;28;45284;-64
2023/04/24 01:50:02;;;;;;;;;4.25;3.00;;;;;10.26;55.93;100310.31;5060447;28;45565;-64
2023/04/24 01:52:30;;;;;;;;;3.25;3.25;;;;;10.23;55.55;100305.97;5062737;28;45324;-64
2023/04/24 01:54:56;;;;;;;;;5.00;4.75;;;;;10.28;55.58;100308.53;5062079;28;45428;-64
2023/04/24 01:57:22;;;;;;;;;4.00;4.00;;;;;10.32;55.83;100315.44;5062409;28;45343;-64
2023/04/24 01:59:47;;;;;;;;;7.50;3.00;;;;;10.30;55.99;100313.75;5062527;28;45264;-64
2023/04/24 02:02:12;;;;;;;;;3.75;3.25;;;;;10.31;55.89;100308.44;5044295;28;45498;-64
2023/04/24 02:04:39;;;;;;;;;5.75;5.75;;;;;10.33;55.76;100318.94;5061940;28;52750;-64
2023/04/24 02:07:04;;;;;;;;;3.00;3.00;;;;;10.30;55.77;100322.50;5062503;28;45308;-64
2023/04/24 02:09:30;;;;;;;;;6.00;5.25;;;;;10.33;56.07;100325.06;5061988;28;45226;-64
2023/04/24 02:11:56;;;;;;;;;7.00;5.00;;;;;10.32;55.83;100323.31;5062314;28;45396;-64
2023/04/24 02:14:21;;;;;;;;;6.00;6.00;;;;;10.32;56.05;100322.47;5043907;28;48224;-64
2023/04/24 02:16:47;;;;;;;;;3.75;3.75;;;;;10.36;56.06;100326.78;5044083;28;45324;-64
2023/04/24 02:19:12;;;;;;;;;6.25;5.75;;;;;10.38;56.25;100331.09;5062239;28;45347;-64
2023/04/24 02:21:37;;;;;;;;;5.25;4.00;;;;;10.35;55.99;100332.91;5062501;28;45498;-64
2023/04/24 02:24:03;;;;;;;;;5.75;4.25;;;;;10.38;56.04;100343.41;5043742;28;47984;-64
2023/04/24 02:26:28;;;;;;;;;6.00;4.00;;;;;10.39;56.23;100338.09;5061871;28;45295;-64
2023/04/24 02:28:54;;;;;;;;;5.75;3.50;;;;;10.39;55.89;100343.34;5043997;28;45308;-64
2023/04/24 02:31:19;;;;;;;;;4.75;3.50;;;;;10.42;56.16;100345.06;5043844;28;45352;-64
2023/04/24 02:33:44;;;;;;;;;3.50;2.25;;;;;10.40;56.04;100339.84;5061378;28;55778;-64
2023/04/24 02:36:09;;;;;;;;;2.25;2.00;;;;;10.39;56.24;100340.72;5043697;28;45349;-64
2023/04/24 02:38:35;;;;;;;;;6.00;4.00;;;;;10.41;56.00;100345.94;5061580;28;45254;-64
2023/04/24 02:41:01;;;;;;;;;3.00;3.00;;;;;10.44;55.94;100345.00;5062112;28;45264;-64
2023/04/24 02:43:27;;;;;;;;;3.00;3.00;;;;;10.43;56.00;100343.28;5043352;28;48076;-64
2023/04/24 02:45:52;;;;;;;;;3.50;3.00;;;;;10.43;56.03;100346.78;5061924;28;45252;-64
2023/04/24 02:48:18;;;;;;;;;4.00;2.75;;;;;10.46;56.22;100356.38;5043460;28;45374;-64
2023/04/24 02:50:44;;;;;;;;;5.00;5.00;;;;;10.44;56.10;100340.66;5062093;28;45231;-64
2023/04/24 02:53:10;;;;;;;;;5.25;5.25;;;;;10.44;55.98;100345.91;5061488;28;46315;-64
2023/04/24 02:55:35;;;;;;;;;3.00;3.00;;;;;10.44;55.96;100348.53;5061538;28;45367;-64
2023/04/24 02:58:01;;;;;;;;;3.00;3.00;;;;;10.18;55.67;100301.72;5061525;28;45222;-64
2023/04/24 03:00:26;;;;;;;;;4.00;4.00;;;;;10.49;56.02;100356.28;5061764;28;45371;-64
2023/04/24 03:02:52;;;;;;;;;4.00;4.00;;;;;10.45;56.27;100360.75;5060757;28;45300;-64
2023/04/24 03:05:17;;;;;;;;;2.50;2.25;;;;;10.42;56.28;100365.22;5061713;28;45386;-64
2023/04/24 03:07:42;;;;;;;;;6.25;5.00;;;;;10.46;56.10;100369.50;5061501;28;45363;-64
2023/04/24 03:10:08;;;;;;;;;5.75;4.00;;;;;10.44;56.16;100359.03;5060915;28;48828;-64
2023/04/24 03:12:33;;;;;;;;;4.75;4.00;;;;;10.45;56.20;100359.88;5061005;28;46020;-64
2023/04/24 03:14:59;;;;;;;;;3.75;2.00;;;;;10.46;56.19;100372.97;5061095;28;49653;-64
2023/04/24 03:17:24;;;;;;;;;3.00;3.00;;;;;10.48;56.18;100373.84;5061430;28;45295;-63
2023/04/24 03:19:50;;;;;;;;;4.00;4.00;;;;;10.47;56.11;100373.88;5061415;28;45380;-64
2023/04/24 03:22:15;;;;;;;;;3.25;3.00;;;;;10.49;56.20;100375.56;5061255;28;45310;-63
2023/04/24 03:24:41;;;;;;;;;5.50;4.25;;;;;10.52;55.92;100374.66;5061082;28;45431;-64
2023/04/24 03:27:06;;;;;;;;;4.25;3.75;;;;;10.51;56.18;100373.75;5061044;28;45685;-63
2023/04/24 03:29:31;;;;;;;;;4.75;4.00;;;;;10.49;56.17;100374.69;5043091;28;45650;-64
2023/04/24 03:31:57;;;;;;;;;4.00;4.00;;;;;10.52;56.16;100379.91;5042751;28;49844;-63
2023/04/24 03:34:22;;;;;;;;;6.25;4.00;;;;;10.49;56.15;100372.06;5042983;28;45383;-63
2023/04/24 03:36:47;;;;;;;;;4.25;3.00;;;;;10.47;56.46;100372.09;5060862;28;45414;-63
2023/04/24 03:39:13;;;;;;;;;4.50;4.50;;;;;10.48;56.51;100383.50;5060803;28;47305;-63
2023/04/24 03:41:38;;;;;;;;;5.00;2.50;;;;;10.45;56.38;100378.28;5060624;28;46316;-64
2023/04/24 03:44:04;;;;;;;;;6.50;4.25;;;;;10.42;56.40;100379.19;5060966;28;45309;-64
2023/04/24 03:46:29;;;;;;;;;6.25;5.00;;;;;10.44;56.19;100373.91;5060826;28;45499;-64
2023/04/24 03:48:54;;;;;;;;;5.75;3.00;;;;;10.45;56.22;100389.63;5060989;28;45225;-63
2023/04/24 03:51:20;;;;;;;;;4.25;3.75;;;;;10.44;56.27;100387.03;5060629;28;45637;-63
2023/04/24 03:53:45;;;;;;;;;5.00;5.00;;;;;10.42;56.40;100389.72;5060593;28;45179;-63
2023/04/24 03:56:11;;;;;;;;;3.00;3.00;;;;;10.42;56.19;100388.84;5060612;28;45344;-63
2023/04/24 03:58:36;;;;;;;;;3.50;3.25;;;;;10.45;56.32;100394.03;5059199;28;45867;-64
2023/04/24 04:01:01;;;;;;;;;6.00;6.00;;;;;10.42;56.26;100389.72;5042386;28;45441;-64
2023/04/24 04:03:27;;;;;;;;;5.00;3.25;;;;;10.44;56.10;100393.19;5060502;28;45316;-63
2023/04/24 04:05:53;;;;;;;;;3.75;3.75;;;;;10.43;56.15;100396.69;5059374;28;45689;-64
2023/04/24 04:08:19;;;;;;;;;6.25;5.25;;;;;10.44;56.13;100406.31;5042380;28;45343;-63
2023/04/24 04:10:44;;;;;;;;;6.25;4.00;;;;;10.46;56.14;100411.53;5059389;28;60014;-63
2023/04/24 04:13:09;;;;;;;;;3.75;3.75;;;;;10.46;56.25;100415.03;5040895;28;45403;-64
2023/04/24 04:15:35;;;;;;;;;5.50;4.25;;;;;10.44;56.24;100416.81;5060488;28;45305;-63
2023/04/24 04:18:00;;;;;;;;;9.00;4.00;;;;;10.46;56.27;100422.03;5059851;28;45321;-63
2023/04/24 04:20:26;;;;;;;;;5.00;4.75;;;;;10.44;56.21;100424.72;5060281;28;45333;-64
2023/04/24 04:22:51;;;;;;;;;4.50;4.00;;;;;10.43;56.18;100416.84;5060266;28;45432;-63
2023/04/24 04:25:19;;;;;;;;;5.50;5.00;;;;;10.42;56.44;100417.75;5060332;28;45272;-64
2023/04/24 04:27:44;;;;;;;;;11.00;7.50;;;;;10.41;56.22;100427.38;5041873;28;45529;-63
2023/04/24 04:30:10;;;;;;;;;7.50;4.75;;;;;10.40;56.36;100425.63;5058744;28;47171;-63
2023/04/24 04:32:35;;;;;;;;;8.50;5.25;;;;;10.38;56.18;100427.44;5060089;28;45398;-63
2023/04/24 04:35:04;;;;;;;;;4.75;4.75;;;;;10.35;56.50;100427.44;5060245;28;45231;-63
2023/04/24 04:37:31;;;;;;;;;9.00;5.00;;;;;10.34;56.43;100437.09;5059677;28;45365;-63
2023/04/24 04:39:57;;;;;;;;;5.25;3.50;;;;;10.33;56.35;100435.38;5058592;28;47189;-63
2023/04/24 04:42:23;;;;;;;;;13.25;10.00;;;;;10.35;56.41;100438.84;5059643;28;45236;-63
2023/04/24 04:44:50;;;;;;;;;6.75;6.00;;;;;10.34;56.56;100449.34;5041934;28;45303;-63
2023/04/24 04:47:16;;;;;;;;;5.75;4.75;;;;;10.31;56.62;100445.03;5041678;28;45574;-64
2023/04/24 04:49:41;;;;;;;;;5.75;5.00;;;;;10.31;56.52;100462.56;5041782;28;46151;-63
2023/04/24 04:52:06;;;;;;;;;6.00;6.00;;;;;10.29;56.45;100462.59;5059302;28;45335;-63
2023/04/24 04:54:32;;;;;;;;;5.25;4.00;;;;;10.25;56.56;100450.38;5058523;28;45303;-64
2023/04/24 04:56:57;;;;;;;;;5.00;5.00;;;;;10.29;56.62;100459.97;5059463;28;45277;-63
2023/04/24 04:59:23;;;;;;;;;4.75;4.00;;;;;10.27;56.63;100459.13;5059804;28;46304;-64
2023/04/24 05:01:48;;;;;;;;;8.50;5.75;;;;;10.28;56.88;100470.50;5059628;28;45268;-63
2023/04/24 05:04:14;;;;;;;;;4.25;3.00;;;;;10.24;56.73;100470.53;5060006;28;45253;-63
2023/04/24 05:06:42;;;;;;;;;6.00;6.00;;;;;10.22;56.78;100468.84;5059455;28;45328;-64
2023/04/24 05:09:07;;;;;;;;;8.75;7.00;;;;;10.19;56.33;100472.38;5042742;28;45416;-64
2023/04/24 05:11:33;;;;;;;;;3.00;2.50;;;;;10.20;56.71;100478.47;5059096;28;45236;-63
2023/04/24 05:13:59;;;;;;;;;7.00;5.00;;;;;10.18;56.69;100486.41;5041652;28;45242;-63
2023/04/24 05:16:24;;;;;;;;;7.25;5.50;;;;;10.15;56.67;100485.56;5059286;28;45501;-64
2023/04/24 05:18:50;;;;;;;;;6.25;6.25;;;;;10.17;56.93;100489.91;5059537;28;45396;-64
2023/04/24 05:21:15;;;;;;;;;8.00;6.50;;;;;10.16;56.77;100493.44;5059394;28;45237;-64
2023/04/24 05:23:41;;;;;;;;;8.25;6.25;;;;;10.17;56.62;100504.81;5059747;28;45423;-63
2023/04/24 05:26:07;;;;;;;;;10.00;9.00;;;;;10.18;56.95;100511.81;5060870;28;45359;-64
2023/04/24 05:28:36;;;;;;;;;8.50;7.25;;;;;10.16;56.93;100513.56;5044646;28;45380;-64
2023/04/24 05:31:03;;;;;;;;;8.25;7.00;;;;;10.11;56.97;100513.63;5062886;28;45202;-64
2023/04/24 05:33:28;;;;;;;;;11.75;10.00;;;;;10.11;56.93;100511.00;5044932;28;45294;-64
2023/04/24 05:35:54;;;;;;;;;9.00;8.00;;;;;10.10;57.02;100519.81;5062723;28;45407;-64
2023/04/24 05:38:20;;;;;;;;;7.50;6.25;;;;;10.14;56.85;100531.09;5041063;28;47284;-64
2023/04/24 05:40:49;;;;;;;;;14.00;12.00;;;;;10.15;56.83;100532.84;5041057;28;45255;-64
2023/04/24 05:43:14;;;;;;;;;9.00;8.75;;;;;10.15;56.77;100538.09;5042448;28;45267;-64
2023/04/24 05:45:39;;;;;;;;;10.75;7.50;;;;;10.15;56.79;100538.97;5042546;28;45254;-63
2023/04/24 05:48:05;;;;;;;;;7.00;5.25;;;;;10.11;57.00;100537.28;5042456;28;46172;-64
2023/04/24 05:50:31;;;;;;;;;6.00;6.00;;;;;10.19;56.75;100555.56;5042470;28;45356;-63
2023/04/24 05:52:58;;;;;;;;;6.00;6.00;;;;;10.19;56.87;100550.31;5041349;28;45522;-64
2023/04/24 05:55:25;;;;;;;;;5.75;5.75;;;;;10.19;56.62;100560.81;5057733;28;45580;-63
2023/04/24 05:57:50;;;;;;;;;7.75;7.75;;;;;10.12;56.91;100543.41;5040788;28;47432;-64
2023/04/24 06:00:17;;;;;;;;;9.25;7.75;;;;;10.25;56.95;100565.94;5042176;28;45213;-64
2023/04/24 06:02:43;;;;;;;;;8.75;7.00;;;;;10.24;56.77;100564.22;5058146;28;45331;-63
2023/04/24 06:05:08;;;;;;;;;9.75;9.00;;;;;10.29;56.80;100572.91;5042189;28;45289;-63
2023/04/24 06:07:33;;;;;;;;;8.00;7.75;;;;;10.31;57.11;100576.34;5042354;28;45300;-63
2023/04/24 06:09:59;;;;;;;;;6.50;6.00;;;;;10.33;57.11;100579.84;5053801;28;45339;-63
2023/04/24 06:12:25;;;;;;;;;10.75;9.00;;;;;10.34;56.90;100584.19;5040187;28;45431;-63
2023/04/24 06:14:51;;;;;;;;;7.75;7.50;;;;;10.33;57.16;100579.84;5042009;28;45367;-63
2023/04/24 06:17:16;;;;;;;;;6.75;6.75;;;;;10.39;57.13;100584.16;5041959;28;46222;-63
2023/04/24 06:19:42;;;;;;;;;8.50;8.25;;;;;10.41;56.79;100587.63;5041993;28;45217;-63
2023/04/24 06:22:07;;;;;;;;;7.00;6.25;;;;;10.44;57.12;100598.09;5042215;28;45431;-64
2023/04/24 06:24:34;;;;;;;;;10.00;9.75;;;;;10.48;56.94;100598.91;5041815;28;45158;-63
2023/04/24 06:27:01;;;;;;;;;8.75;8.75;;;;;10.43;57.08;100595.47;5040337;28;46869;-64
2023/04/24 06:29:26;;;;;;;;;11.75;11.00;;;;;10.50;57.34;100595.38;5041751;28;45268;-63
2023/04/24 06:31:51;;;;;;;;;17.25;12.50;;;;;10.50;57.40;100598.00;5041971;28;45363;-63
2023/04/24 06:34:17;;;;;;;;;11.00;9.25;;;;;10.51;57.35;100604.97;5041255;28;57496;-63
2023/04/24 06:36:42;;;;;;;;;10.50;10.50;;;;;10.50;57.35;100605.00;5058924;28;48536;-64
2023/04/24 06:39:07;;;;;;;;;9.25;7.75;;;;;10.54;57.26;100609.28;5043642;28;45256;-63
2023/04/24 06:41:36;;;;;;;;;7.50;7.00;;;;;10.54;57.29;100614.56;5061914;28;45253;-63
2023/04/24 06:44:01;;;;;;;;;9.75;9.75;;;;;10.55;57.22;100617.19;5061911;28;45229;-63
2023/04/24 06:46:27;;;;;;;;;12.00;11.75;;;;;10.60;57.26;100624.97;5061660;28;46100;-63
2023/04/24 06:48:56;;;;;;;;;7.50;7.00;;;;;10.61;57.41;100631.97;5061757;28;45307;-63
2023/04/24 06:51:25;;;;;;;;;12.75;9.25;;;;;10.62;57.29;100623.19;5060445;28;45438;-63
2023/04/24 06:53:51;;;;;;;;;13.75;10.00;;;;;10.64;57.40;100626.69;5061662;28;45302;-63
2023/04/24 06:56:17;;;;;;;;;12.25;8.75;;;;;10.64;57.22;100629.31;5060847;28;46252;-63
2023/04/24 06:58:43;;;;;;;;;9.25;8.25;;;;;10.65;57.10;100633.66;5043390;28;45194;-63
2023/04/24 07:01:10;;;;;;;;;10.75;10.50;;;;;10.68;57.30;100636.25;5061647;28;45428;-63
2023/04/24 07:03:35;;;;;;;;;10.75;10.00;;;;;10.67;57.09;100623.97;5043332;28;45248;-63
2023/04/24 07:06:01;;;;;;;;;12.75;11.50;;;;;10.72;57.43;100629.19;5061154;28;46039;-64
2023/04/24 07:08:26;;;;;;;;;12.00;11.50;;;;;10.71;57.56;100625.66;5061510;28;45158;-65
2023/04/24 07:10:51;;;;;;;;;13.00;10.25;;;;;10.77;57.61;100629.06;5044420;28;45435;-63
2023/04/24 07:13:17;;;;;;;;;13.00;9.75;;;;;10.81;57.41;100628.16;5043216;28;45312;-63
2023/04/24 07:15:43;;;;;;;;;13.75;11.25;;;;;10.83;57.68;100635.13;5061061;28;45980;-63
2023/04/24 07:18:08;;;;;;;;;13.75;13.50;;;;;10.83;57.59;100634.22;5061315;28;45422;-63
2023/04/24 07:20:34;;;;;;;;;15.25;12.50;;;;;10.83;57.68;100627.22;5061529;28;45345;-63
2023/04/24 07:22:59;;;;;;;;;12.25;12.25;;;;;10.88;57.58;100635.91;5061205;28;45409;-63
2023/04/24 07:25:24;;;;;;;;;13.50;10.75;;;;;10.93;57.59;100637.56;5061241;28;45316;-63
2023/04/24 07:27:50;;;;;;;;;16.75;13.25;;;;;10.94;57.63;100637.53;5042786;28;45343;-62
2023/04/24 07:30:15;;;;;;;;;10.50;10.00;;;;;10.96;57.70;100640.16;5061564;28;45249;-63
2023/04/24 07:32:40;;;;;;;;;14.50;12.00;;;;;10.96;57.45;100637.53;5059863;28;45573;-63
2023/04/24 07:35:06;;;;;;;;;14.00;11.25;;;;;10.98;57.72;100636.63;5060882;28;45493;-63
2023/04/24 07:37:32;;;;;;;;;13.00;12.25;;;;;11.00;57.65;100639.22;5060796;28;45517;-63
2023/04/24 07:39:57;;;;;;;;;14.75;13.50;;;;;11.09;57.42;100653.97;5061025;28;45221;-63
2023/04/24 07:42:22;;;;;;;;;18.25;12.25;;;;;11.05;57.49;100643.47;5060608;28;45331;-63
2023/04/24 07:44:48;;;;;;;;;15.50;11.50;;;;;11.07;57.67;100646.09;5060769;28;46474;-63
2023/04/24 07:47:15;;;;;;;;;15.25;13.25;;;;;11.13;57.62;100659.16;5060380;28;45209;-63
2023/04/24 07:49:41;;;;;;;;;15.00;14.50;;;;;11.14;57.69;100649.50;5061021;28;45221;-62
2023/04/24 07:52:07;;;;;;;;;16.75;14.50;;;;;11.17;57.54;100660.81;5060584;28;45442;-62
2023/04/24 07:54:32;;;;;;;;;20.00;16.25;;;;;11.17;57.26;100659.94;5059207;28;45394;-63
2023/04/24 07:56:57;;;;;;;;;15.50;13.50;;;;;11.20;57.27;100663.38;5059795;28;52937;-63
2023/04/24 07:59:23;;;;;;;;;13.75;12.00;;;;;11.20;57.42;100659.91;5060778;28;45257;-62
2023/04/24 08:01:48;;;;;;;;;19.00;15.50;;;;;11.21;57.43;100661.66;5060557;28;45305;-62
2023/04/24 08:04:14;;;;;;;;;16.00;15.50;;;;;11.18;57.21;100657.31;5060601;28;46528;-62
2023/04/24 08:06:39;;;;;;;;;17.25;12.25;;;;;11.16;57.28;100656.47;5060274;28;45484;-63
2023/04/24 08:09:05;;;;;;;;;18.75;14.50;;;;;11.22;57.40;100660.75;5060364;28;45302;-63
2023/04/24 08:11:30;;;;;;;;;19.00;18.50;;;;;11.28;57.47;100676.44;5060150;28;45650;-63
2023/04/24 08:13:55;;;;;;;;;17.50;14.75;;;;;11.26;57.34;100678.22;5060636;28;46647;-63
2023/04/24 08:16:21;;;;;;;;;15.25;12.75;;;;;11.23;57.26;100672.97;5042056;28;45389;-62
2023/04/24 08:18:47;;;;;;;;;19.50;16.00;;;;;11.26;57.45;100686.09;5042664;28;45265;-62
2023/04/24 08:21:16;;;;;;;;;19.25;18.00;;;;;11.26;57.46;100686.09;5060177;28;45334;-63
2023/04/24 08:23:42;;;;;;;;;22.50;19.75;;;;;11.27;57.36;100693.09;5060324;28;45461;-62
2023/04/24 08:26:07;;;;;;;;;16.00;14.75;;;;;11.28;57.32;100693.97;5059314;28;45435;-63
2023/04/24 08:28:32;;;;;;;;;22.25;18.75;;;;;11.29;57.28;100693.91;5041759;28;45423;-63
2023/04/24 08:30:58;;;;;;;;;19.00;17.25;;;;;11.30;57.36;100684.28;5059747;28;45402;-62
2023/04/24 08:33:24;;;;;;;;;21.50;19.25;;;;;11.36;57.42;100692.06;5059712;28;45381;-63
2023/04/24 08:35:49;;;;;;;;;18.50;15.75;;;;;11.39;57.02;100684.09;5040851;28;45429;-63
2023/04/24 08:38:16;;;;;;;;;19.75;18.75;;;;;11.41;57.41;100692.84;5039684;28;45346;-63
2023/04/24 08:40:42;;;;;;;;;24.00;19.75;;;;;11.45;57.42;100691.88;5021579;28;45550;-63
2023/04/24 08:43:08;;;;;;;;;20.50;18.25;;;;;11.49;57.53;100695.34;5039277;28;45380;-63
2023/04/24 08:45:33;;;;;;;;;17.50;16.50;;;;;11.53;57.50;100700.53;5039483;28;45432;-63
2023/04/24 08:47:59;;;;;;;;;22.50;21.00;;;;;11.55;57.11;100687.31;5039798;28;45154;-62
2023/04/24 08:50:25;;;;;;;;;18.25;14.50;;;;;11.60;57.12;100692.50;5039680;28;45409;-63
2023/04/24 08:52:56;;;;;;;;;21.25;18.00;;;;;11.65;57.14;100694.13;5039764;28;46747;-63
2023/04/24 08:55:24;;;;;;;;;19.25;18.25;;;;;11.71;57.19;100696.66;5039207;28;45254;-63
2023/04/24 08:57:52;;;;;;;;;20.75;15.75;;;;;11.77;57.21;100693.00;5021624;28;45417;-63
2023/04/24 09:00:19;;;;;;;;;21.25;15.75;;;;;11.81;57.25;100688.56;5039981;28;45435;-62
2023/04/24 09:02:48;;;;;;;;;12.75;12.75;;;;;11.89;57.18;100688.44;5025008;28;47194;-63
2023/04/24 09:05:15;;;;;;;;;20.00;18.50;;;;;11.95;57.30;100688.28;5050272;28;45376;-63
2023/04/24 09:07:45;;;;;;;;;29.00;26.00;;;;;12.02;57.12;100684.66;5063254;28;45313;-63
2023/04/24 09:10:11;;;;;;;;;18.00;15.25;;;;;12.12;57.13;100693.25;5062842;28;45472;-62
2023/04/24 09:12:37;;;;;;;;;23.00;18.75;;;;;12.16;56.95;100687.00;5062792;28;45181;-63
2023/04/24 09:15:06;;;;;;;;;22.50;19.50;;;;;12.25;56.96;100691.19;5063133;28;45217;-63
2023/04/24 09:17:33;;;;;;;;;20.50;18.50;;;;;12.32;56.83;100693.66;5063355;28;45399;-64
2023/04/24 09:19:58;;;;;;;;;18.75;15.50;;;;;12.39;57.19;100699.69;5045067;28;45854;-63
2023/04/24 09:22:23;;;;;;;;;17.75;15.75;;;;;12.46;56.79;100689.84;5062807;28;45832;-64
2023/04/24 09:25:02;;;;;;;;;23.50;21.50;;;;;12.43;56.38;100684.66;5063241;28;45372;-64
2023/04/24 09:27:28;;;;;;;;;21.75;21.75;;;;;12.57;56.22;100697.53;5062933;28;45219;-64
2023/04/24 09:29:55;;;;;;;;;19.00;17.25;;;;;12.57;56.66;100703.66;5044974;28;45224;-64
2023/04/24 09:32:29;;;;;;;;;21.00;18.50;;;;;12.60;56.24;100693.06;5062871;28;46807;-63
2023/04/24 09:35:12;;;;;;;;;16.75;16.00;;;;;12.66;56.38;100703.44;5044717;28;45368;-63
2023/04/24 09:37:39;;;;;;;;;22.25;18.25;;;;;12.67;55.58;100705.16;5062735;28;45280;-63
2023/04/24 09:40:15;;;;;;;;;19.50;18.25;;;;;12.71;56.44;100711.25;5062662;28;45526;-63
2023/04/24 09:42:45;;;;;;;;;17.50;15.50;;;;;12.74;56.15;100715.56;5062681;28;45384;-63
2023/04/24 09:45:11;;;;;;;;;19.75;16.00;;;;;12.71;55.94;100705.97;5044363;28;45840;-63
2023/04/24 09:47:38;;;;;;;;;17.00;13.00;;;;;12.75;55.93;100712.03;5044530;28;45277;-63
2023/04/24 09:50:15;;;;;;;;;19.50;17.25;;;;;12.75;55.88;100722.59;5062375;28;45236;-63
2023/04/24 09:52:45;;;;;;;;;13.25;13.25;;;;;12.70;56.12;100719.19;5062534;28;45281;-63
2023/04/24 09:55:13;;;;;;;;;20.75;19.00;;;;;12.72;55.55;100720.03;5062220;28;45410;-64
2023/04/24 09:57:52;;;;;;;;;18.25;18.25;;;;;12.79;55.84;100725.13;5060964;28;45311;-64
2023/04/24 10:00:28;;;;;;;;;19.00;18.00;;;;;12.78;55.79;100725.13;5044131;28;45312;-64
2023/04/24 10:02:59;;;;;;;;;18.00;17.00;;;;;12.82;55.63;100722.41;5062296;28;45511;-63
2023/04/24 10:05:31;;;;;;;;;16.75;16.00;;;;;12.83;55.62;100718.00;5060544;28;45194;-63
2023/04/24 10:08:01;;;;;;;;;18.50;17.25;;;;;12.84;55.83;100725.88;5062332;28;45348;-63
2023/04/24 10:10:27;;;;;;;;;17.50;14.75;;;;;12.88;55.49;100716.13;5061379;28;45486;-63
2023/04/24 10:12:53;;;;;;;;;15.75;14.00;;;;;12.96;55.39;100716.78;5060873;28;46037;-63
2023/04/24 10:15:21;;;;;;;;;16.25;15.75;;;;;13.01;55.76;100709.63;5062401;28;45486;-63
2023/04/24 10:17:52;;;;;;;;;16.25;15.50;;;;;13.09;55.62;100713.84;5062084;28;45431;-64
2023/04/24 10:20:22;;;;;;;;;14.75;13.00;;;;;13.16;55.28;100718.94;5062182;28;45446;-63
2023/04/24 10:22:52;;;;;;;;;19.50;17.25;;;;;13.23;55.34;100713.50;5061915;28;46169;-63
2023/04/24 10:25:23;;;;;;;;;16.75;13.25;;;;;13.28;54.92;100711.59;5061915;28;45281;-63
2023/04/24 10:27:50;;;;;;;;;13.25;12.50;;;;;13.35;55.10;100723.75;5061819;28;45357;-62
2023/04/24 10:30:16;;;;;;;;;18.50;16.50;;;;;13.38;54.94;100726.31;5060809;28;45577;-62
2023/04/24 10:32:42;;;;;;;;;14.50;14.00;;;;;13.43;55.14;100727.09;5061736;28;45454;-63
2023/04/24 10:35:09;;;;;;;;;18.50;15.50;;;;;13.51;54.75;100718.09;5043673;28;45522;-63
2023/04/24 10:37:41;;;;;;;;;19.75;15.50;;;;;13.49;54.65;100723.41;5061765;28;45309;-63
2023/04/24 10:40:09;;;;;;;;;16.25;16.25;;;;;13.60;54.57;100728.41;5043411;28;45497;-63
2023/04/24 10:42:35;;;;;;;;;13.50;12.50;;;;;13.69;54.18;100722.88;5043452;28;47644;-61
2023/04/24 10:45:05;;;;;;;;;16.00;15.00;;;;;13.71;54.10;100718.44;5060176;28;46245;-62
2023/04/24 10:47:40;;;;;;;;;17.00;16.50;;;;;13.76;53.81;100724.44;5062105;28;45293;-62
2023/04/24 10:50:09;;;;;;;;;16.25;16.25;;;;;13.73;54.16;100708.66;5061616;28;45301;-62
2023/04/24 10:52:50;;;;;;;;;14.25;13.50;;;;;13.86;53.95;100713.63;5061708;28;45442;-61
2023/04/24 10:55:16;;;;;;;;;18.25;16.25;;;;;13.97;54.08;100715.06;5061245;28;45453;-61
2023/04/24 10:58:02;;;;;;;;;18.50;17.00;;;;;14.08;53.77;100727.09;5061318;28;45506;-62
2023/04/24 11:00:28;;;;;;;;;16.75;15.50;;;;;14.22;54.00;100726.69;5061541;28;45359;-61
2023/04/24 11:02:53;;;;;;;;;18.75;15.50;;;;;14.32;53.50;100722.84;5061314;28;45700;-61
2023/04/24 11:05:20;;;;;;;;;18.25;17.25;;;;;14.40;53.78;100719.97;5061488;28;45324;-62
2023/04/24 11:08:22;;;;;;;;;15.50;13.75;;;;;14.48;53.58;100710.03;5061466;28;45464;-62
2023/04/24 11:10:56;;;;;;;;;18.00;15.50;;;;;14.49;53.56;100701.19;5060960;28;45475;-61
2023/04/24 11:13:23;;;;;;;;;14.00;13.00;;;;;14.57;53.92;100715.03;5061006;28;46373;-61
2023/04/24 11:16:25;;;;;;;;;14.75;14.50;;;;;14.62;53.79;100706.97;5060963;28;45347;-62